Time;durP1;ratioP1;P1;durP2;ratioP2;P2;SDS_P1;SDS_P2;PMS_P1;PMS_P2;Temp;Humidity;BMP_temperature;BMP_pressure;BME280_temperature;BME280_humidity;BME280_pressure;Samples;Min_cycle;Max_cycle;Signal;HPM_P1;HPM_P2
2021/01/05 00:00:54;;;;;;;11.77;2.40;;;;;;;5.83;66.85;100653.25;5023853;28;20056;-79
2021/01/05 00:03:20;;;;;;;9.60;2.58;;;;;;;5.55;67.43;100659.41;5012527;28;20126;-80
2021/01/05 00:05:47;;;;;;;11.77;2.08;;;;;;;5.63;67.86;100660.50;4996897;28;20058;-77
2021/01/05 00:08:13;;;;;;;5.85;1.95;;;;;;;5.53;67.99;100655.00;5033287;28;20052;-81
2021/01/05 00:10:40;;;;;;;8.93;1.70;;;;;;;5.87;67.18;100647.34;5017747;28;20045;-79
2021/01/05 00:13:08;;;;;;;19.05;2.60;;;;;;;5.16;68.67;100648.78;5033742;28;20147;-78
2021/01/05 00:15:36;;;;;;;15.50;2.05;;;;;;;5.76;67.43;100661.69;5018590;28;20055;-78
2021/01/05 00:18:03;;;;;;;20.77;2.90;;;;;;;5.68;67.82;100661.50;5032839;28;20049;-78
2021/01/05 00:20:32;;;;;;;16.13;2.70;;;;;;;5.59;67.92;100657.78;5035520;28;21905;-78
2021/01/05 00:23:12;;;;;;;11.02;2.72;;;;;;;5.28;69.01;100662.06;5027667;28;20418;-81
2021/01/05 00:25:39;;;;;;;7.03;2.67;;;;;;;5.75;67.55;100662.56;5035099;28;20052;-80
2021/01/05 00:28:06;;;;;;;11.70;2.30;;;;;;;5.75;68.11;100653.91;5009536;28;20475;-79
2021/01/05 00:30:32;;;;;;;11.57;2.50;;;;;;;5.57;68.87;100656.84;5016129;28;20457;-80
2021/01/05 00:32:58;;;;;;;9.43;2.55;;;;;;;4.97;70.29;100658.53;5014123;28;20140;-80
2021/01/05 00:35:31;;;;;;;9.60;2.30;;;;;;;5.60;68.59;100650.06;5006362;28;20072;-79
2021/01/05 00:37:59;;;;;;;11.55;2.60;;;;;;;6.04;67.33;100653.00;5031813;28;20038;-78
2021/01/05 00:40:28;;;;;;;10.63;1.98;;;;;;;5.35;67.98;100649.31;5035834;28;20424;-79
2021/01/05 00:42:54;;;;;;;8.57;1.85;;;;;;;6.27;66.17;100638.88;5015129;28;20051;-78
2021/01/05 00:45:26;;;;;;;8.02;2.13;;;;;;;5.47;68.05;100636.69;5014474;28;20050;-81
2021/01/05 00:47:53;;;;;;;6.68;1.60;;;;;;;5.41;68.43;100634.81;5033145;28;20042;-78
2021/01/05 00:50:20;;;;;;;5.50;1.50;;;;;;;5.68;67.50;100634.69;5019503;28;20167;-77
2021/01/05 00:52:46;;;;;;;12.43;1.90;;;;;;;5.52;68.65;100637.69;5026328;28;20128;-77
2021/01/05 00:55:13;;;;;;;7.95;1.98;;;;;;;5.56;67.79;100634.38;5016797;28;20049;-78
2021/01/05 00:57:43;;;;;;;8.38;2.85;;;;;;;6.16;66.34;100629.94;5016173;28;20526;-78
2021/01/05 01:00:14;;;;;;;8.38;1.83;;;;;;;5.96;67.26;100637.22;5032493;28;20142;-78
2021/01/05 01:02:41;;;;;;;6.82;1.88;;;;;;;5.54;67.16;100642.09;5007324;28;20057;-78
2021/01/05 01:05:09;;;;;;;7.45;1.77;;;;;;;5.81;67.55;100643.66;4999463;28;20049;-78
2021/01/05 01:07:36;;;;;;;6.35;1.75;;;;;;;6.17;66.20;100647.28;5001758;28;20056;-77
2021/01/05 01:10:05;;;;;;;7.43;1.30;;;;;;;5.74;66.89;100644.34;5008189;28;20049;-78
2021/01/05 01:12:35;;;;;;;5.95;1.60;;;;;;;5.90;66.57;100643.97;5010832;28;20050;-78
2021/01/05 01:15:05;;;;;;;5.88;1.50;;;;;;;5.70;67.31;100640.81;4993087;28;20447;-79
2021/01/05 01:17:32;;;;;;;6.45;1.10;;;;;;;6.08;65.87;100640.13;5024760;28;20050;-77
2021/01/05 01:19:59;;;;;;;8.18;2.15;;;;;;;6.03;65.27;100643.44;5009710;28;20225;-78
2021/01/05 01:22:27;;;;;;;5.25;1.17;;;;;;;6.12;65.69;100641.97;5008342;28;20190;-78
2021/01/05 01:24:53;;;;;;;11.32;1.50;;;;;;;5.93;65.84;100631.97;5010955;28;20050;-79
2021/01/05 01:27:20;;;;;;;5.90;1.80;;;;;;;5.89;66.45;100635.31;5005965;28;20473;-77
2021/01/05 01:29:47;;;;;;;9.77;1.60;;;;;;;5.68;66.40;100634.69;5001655;28;20100;-76
2021/01/05 01:32:15;;;;;;;7.43;1.45;;;;;;;5.60;66.91;100631.03;5010516;28;20054;-77
2021/01/05 01:34:42;;;;;;;6.90;2.17;;;;;;;4.92;69.00;100629.03;5021492;28;20050;-78
2021/01/05 01:37:17;;;;;;;9.55;1.17;;;;;;;4.92;68.81;100629.91;5009467;28;20057;-78
2021/01/05 01:39:46;;;;;;;6.95;1.70;;;;;;;5.17;68.05;100623.75;5004330;28;20044;-78
2021/01/05 01:42:16;;;;;;;6.45;1.65;;;;;;;5.78;66.21;100634.09;5008851;28;20072;-77
2021/01/05 01:44:46;;;;;;;7.13;1.25;;;;;;;5.55;66.35;100627.44;5012047;28;20069;-79
2021/01/05 01:47:36;;;;;;;2.53;1.45;;;;;;;4.79;68.18;100625.22;4979717;28;20046;-78
2021/01/05 01:50:23;;;;;;;4.35;1.20;;;;;;;4.94;67.86;100623.06;5018001;28;20968;-76
2021/01/05 01:53:12;;;;;;;10.10;1.50;;;;;;;5.19;68.39;100622.06;5017689;28;20049;-77
2021/01/05 01:56:07;;;;;;;7.72;1.30;;;;;;;6.16;65.44;100618.69;5012739;28;20077;-79
2021/01/05 01:58:59;;;;;;;7.43;1.55;;;;;;;6.08;65.47;100621.09;5031994;28;20044;-78
2021/01/05 02:01:25;;;;;;;7.43;1.90;;;;;;;6.05;65.21;100613.22;5004847;28;20041;-77
2021/01/05 02:04:11;;;;;;;6.47;1.90;;;;;;;5.61;66.01;100614.66;5004265;28;20483;-79
2021/01/05 02:07:09;;;;;;;9.85;1.83;;;;;;;5.15;68.31;100602.97;5017693;28;20452;-78
2021/01/05 02:10:05;;;;;;;8.02;1.77;;;;;;;5.58;66.58;100606.75;5030502;28;20046;-78
2021/01/05 02:12:47;;;;;;;12.88;1.83;;;;;;;5.74;66.82;100603.75;4996191;28;20045;-76
2021/01/05 02:15:48;;;;;;;5.95;1.58;;;;;;;5.84;66.28;100602.28;5015008;28;20149;-77
2021/01/05 02:18:33;;;;;;;9.48;1.85;;;;;;;6.13;65.04;100594.44;5016175;28;20508;-76
2021/01/05 02:21:05;;;;;;;11.93;1.70;;;;;;;6.04;65.29;100590.75;5020598;28;20488;-76
2021/01/05 02:23:47;;;;;;;10.85;1.60;;;;;;;6.09;65.29;100595.19;5032526;28;20227;-77
2021/01/05 02:26:37;;;;;;;10.52;1.42;;;;;;;5.62;66.33;100590.44;5005603;28;20143;-77
2021/01/05 02:29:09;;;;;;;10.45;2.08;;;;;;;4.63;69.49;100597.09;5033177;28;20063;-77
2021/01/05 02:32:00;;;;;;;3.08;1.35;;;;;;;4.87;69.00;100600.44;5024171;28;20056;-77
2021/01/05 02:34:40;;;;;;;7.78;1.63;;;;;;;5.54;67.32;100594.56;5021490;28;20045;-77
2021/01/05 02:37:32;;;;;;;8.13;1.60;;;;;;;5.12;68.29;100595.13;5006380;28;20041;-78
2021/01/05 02:40:13;;;;;;;4.03;1.35;;;;;;;4.52;70.80;100596.75;4992391;28;20049;-78
2021/01/05 02:43:16;;;;;;;7.25;1.40;;;;;;;5.13;69.27;100586.50;5026222;28;20463;-78
2021/01/05 02:46:05;;;;;;;5.88;1.48;;;;;;;4.94;69.81;100588.56;4996483;28;20434;-78
2021/01/05 02:48:55;;;;;;;5.68;1.60;;;;;;;4.79;70.07;100584.69;5027028;28;20104;-78
2021/01/05 02:51:30;;;;;;;7.85;1.10;;;;;;;5.26;68.77;100583.44;5029135;28;20042;-78
2021/01/05 02:54:21;;;;;;;4.25;1.20;;;;;;;5.27;69.07;100573.97;4999702;28;20147;-77
2021/01/05 02:57:10;;;;;;;5.18;1.13;;;;;;;5.23;69.36;100583.34;5013223;28;20049;-77
2021/01/05 03:00:18;;;;;;;3.78;1.20;;;;;;;5.51;68.25;100573.75;4997229;28;20057;-78
2021/01/05 03:03:03;;;;;;;8.13;1.70;;;;;;;5.18;69.30;100571.97;4989823;28;20045;-77
2021/01/05 03:05:30;;;;;;;10.43;1.75;;;;;;;5.09;69.46;100570.84;5030435;28;20495;-77
2021/01/05 03:07:56;;;;;;;7.43;1.63;;;;;;;5.29;69.20;100569.69;5038049;28;20108;-77
2021/01/05 03:10:36;;;;;;;7.38;1.40;;;;;;;4.72;70.60;100566.31;5031618;28;20057;-78
2021/01/05 03:13:16;;;;;;;9.38;1.20;;;;;;;5.37;68.80;100575.09;5037641;28;20044;-77
2021/01/05 03:15:55;;;;;;;6.70;1.20;;;;;;;5.16;69.69;100583.13;5028034;28;20051;-78
2021/01/05 03:19:08;;;;;;;9.50;1.50;;;;;;;4.98;70.10;100582.63;5027757;28;20133;-78
2021/01/05 03:21:51;;;;;;;10.13;1.65;;;;;;;5.06;70.45;100582.00;4999439;28;20518;-77
2021/01/05 03:24:20;;;;;;;6.47;2.25;;;;;;;5.81;67.49;100584.91;4991711;28;20135;-78
2021/01/05 03:26:49;;;;;;;9.40;2.33;;;;;;;5.44;67.97;100577.00;5025552;28;20067;-78
2021/01/05 03:29:17;;;;;;;10.85;2.55;;;;;;;5.89;67.33;100573.06;5000068;28;20532;-78
2021/01/05 03:31:52;;;;;;;10.60;1.70;;;;;;;5.34;68.75;100575.88;5015711;28;20088;-78
2021/01/05 03:34:19;;;;;;;8.07;1.60;;;;;;;5.81;67.84;100576.25;5019126;28;20057;-78
2021/01/05 03:36:47;;;;;;;8.95;1.65;;;;;;;5.62;67.38;100583.56;5015974;28;20057;-78
2021/01/05 03:39:34;;;;;;;7.03;1.35;;;;;;;5.31;68.61;100573.22;5032345;28;20068;-78
2021/01/05 03:42:00;;;;;;;7.75;1.10;;;;;;;5.53;67.66;100579.84;5036603;28;20049;-78
2021/01/05 03:44:28;;;;;;;3.97;1.50;;;;;;;5.41;68.16;100577.81;4998000;28;20054;-78
2021/01/05 03:46:54;;;;;;;8.10;1.20;;;;;;;5.46;68.18;100577.94;4997421;28;20071;-78
2021/01/05 03:49:21;;;;;;;8.18;1.38;;;;;;;5.05;68.78;100580.25;5034658;28;20141;-78
2021/01/05 03:51:48;;;;;;;6.35;1.25;;;;;;;5.76;67.51;100586.50;5015200;28;20044;-78
2021/01/05 03:54:14;;;;;;;4.78;1.27;;;;;;;5.52;67.71;100586.75;5015396;28;20484;-78
2021/01/05 03:56:41;;;;;;;8.43;1.65;;;;;;;5.10;69.45;100586.44;5034612;28;20055;-77
2021/01/05 03:59:07;;;;;;;8.23;1.20;;;;;;;5.31;69.29;100588.75;5033487;28;20487;-77
2021/01/05 04:01:34;;;;;;;14.48;1.63;;;;;;;5.63;67.95;100577.53;5009122;28;20052;-76
2021/01/05 04:04:00;;;;;;;7.60;1.60;;;;;;;5.67;67.88;100584.56;5005764;28;20054;-78
2021/01/05 04:06:28;;;;;;;10.88;1.80;;;;;;;5.62;68.37;100593.94;5013257;28;20049;-77
2021/01/05 04:08:59;;;;;;;12.90;1.88;;;;;;;5.65;68.14;100577.59;5022557;28;20359;-77
2021/01/05 04:11:25;;;;;;;5.28;1.52;;;;;;;5.96;66.41;100579.28;5012036;28;20136;-77
2021/01/05 04:13:52;;;;;;;8.13;2.15;;;;;;;5.56;68.37;100587.72;4998911;28;20044;-77
2021/01/05 04:16:19;;;;;;;7.63;1.70;;;;;;;5.46;68.04;100580.53;5014490;28;20087;-77
2021/01/05 04:18:45;;;;;;;4.78;1.92;;;;;;;5.79;67.66;100581.41;5035789;28;20041;-77
2021/01/05 04:21:13;;;;;;;6.35;2.00;;;;;;;5.53;67.96;100582.44;5011422;28;20152;-78
2021/01/05 04:23:40;;;;;;;7.82;2.03;;;;;;;5.65;68.70;100577.59;5030823;28;20053;-77
2021/01/05 04:26:09;;;;;;;9.30;2.42;;;;;;;6.00;66.28;100581.97;5032254;28;20049;-78
2021/01/05 04:28:36;;;;;;;12.55;2.10;;;;;;;5.80;67.18;100579.72;5032508;28;20048;-77
2021/01/05 04:31:03;;;;;;;5.03;1.77;;;;;;;5.23;69.06;100575.56;5009271;28;20053;-77
2021/01/05 04:33:30;;;;;;;8.73;1.70;;;;;;;5.68;67.95;100581.13;4999493;28;20078;-77
2021/01/05 04:35:56;;;;;;;7.75;1.75;;;;;;;5.85;67.23;100578.97;5013284;28;20041;-77
2021/01/05 04:38:23;;;;;;;7.68;1.70;;;;;;;6.08;66.48;100584.78;5010370;28;20041;-78
2021/01/05 04:40:52;;;;;;;9.15;1.77;;;;;;;5.72;67.13;100588.16;5015338;28;20403;-77
2021/01/05 04:43:34;;;;;;;6.53;1.98;;;;;;;6.09;66.46;100577.03;4996332;28;20390;-77
2021/01/05 04:46:06;;;;;;;9.80;1.60;;;;;;;5.75;67.36;100576.13;5022064;28;20042;-78
2021/01/05 04:48:41;;;;;;;5.28;1.77;;;;;;;5.76;67.31;100588.22;5023974;28;20046;-78
2021/01/05 04:51:16;;;;;;;8.02;1.58;;;;;;;5.63;67.89;100582.72;5003526;28;20057;-78
2021/01/05 04:54:24;;;;;;;4.55;1.50;;;;;;;5.72;67.37;100584.69;5008808;28;20053;-78
2021/01/05 04:56:53;;;;;;;6.38;2.40;;;;;;;5.97;67.20;100588.81;4934785;29;20078;-78
2021/01/05 04:59:27;;;;;;;6.97;1.75;;;;;;;5.62;67.21;100580.97;4936290;28;20544;-78
2021/01/05 05:01:54;;;;;;;10.10;2.10;;;;;;;6.10;66.79;100580.50;4937753;28;20044;-78
2021/01/05 05:04:28;;;;;;;8.50;1.90;;;;;;;6.31;65.92;100578.44;4913409;29;20092;-77
2021/01/05 05:07:39;;;;;;;4.38;1.63;;;;;;;6.07;66.07;100572.66;4936744;28;20071;-79
2021/01/05 05:10:20;;;;;;;8.27;3.17;;;;;;;6.40;64.88;100569.97;4921178;28;20138;-77
2021/01/05 05:12:58;;;;;;;9.00;2.40;;;;;;;6.37;65.08;100575.09;4911690;28;20059;-78
2021/01/05 05:15:53;;;;;;;5.28;1.80;;;;;;;6.10;65.74;100567.53;4938747;28;20122;-78
2021/01/05 05:18:31;;;;;;;5.20;1.98;;;;;;;6.27;65.67;100565.34;4933576;28;20082;-79
2021/01/05 05:21:06;;;;;;;7.78;2.10;;;;;;;5.89;67.33;100564.41;4942506;28;20047;-78
2021/01/05 05:23:46;;;;;;;6.60;2.05;;;;;;;5.61;68.55;100561.06;4947910;28;20055;-78
2021/01/05 05:26:21;;;;;;;6.20;2.28;;;;;;;5.63;67.48;100566.28;4937038;28;20095;-78
2021/01/05 05:28:55;;;;;;;14.30;3.35;;;;;;;5.28;69.35;100567.94;4943063;28;20087;-77
2021/01/05 05:31:26;;;;;;;8.65;3.50;;;;;;;6.00;67.16;100570.72;4912287;29;20073;-79
2021/01/05 05:33:58;;;;;;;9.80;2.97;;;;;;;5.83;67.29;100567.69;4988017;28;20048;-79
2021/01/05 05:36:42;;;;;;;9.65;2.92;;;;;;;6.07;66.57;100568.34;4999165;28;20148;-77
2021/01/05 05:39:11;;;;;;;4.80;2.50;;;;;;;6.20;66.18;100572.09;5031502;28;20143;-78
2021/01/05 05:41:53;;;;;;;5.80;2.28;;;;;;;6.21;66.08;100573.84;5014932;28;20054;-78
2021/01/05 05:44:49;;;;;;;9.98;2.40;;;;;;;6.34;66.06;100569.81;5037353;28;20076;-78
2021/01/05 05:47:34;;;;;;;4.18;2.28;;;;;;;5.96;67.31;100569.78;5016872;28;20056;-78
2021/01/05 05:50:14;;;;;;;9.35;2.47;;;;;;;5.56;67.76;100570.44;5024905;28;20049;-77
2021/01/05 05:52:51;;;;;;;10.18;2.08;;;;;;;6.30;66.16;100575.78;5018560;28;20049;-77
2021/01/05 05:55:45;;;;;;;5.10;1.95;;;;;;;6.31;65.26;100568.06;5019166;28;20041;-77
2021/01/05 05:58:21;;;;;;;8.57;2.15;;;;;;;5.53;68.57;100578.13;4976469;28;20513;-77
2021/01/05 06:00:51;;;;;;;10.13;2.65;;;;;;;5.86;66.68;100583.31;4977007;28;20058;-76
2021/01/05 06:03:21;;;;;;;12.68;3.50;;;;;;;6.07;66.52;100589.09;4980519;28;20050;-77
2021/01/05 06:05:48;;;;;;;14.48;3.13;;;;;;;6.07;66.60;100581.31;4962347;28;20581;-77
2021/01/05 06:08:17;;;;;;;7.15;2.72;;;;;;;5.39;67.70;100594.13;4978723;28;20089;-77
2021/01/05 06:10:44;;;;;;;9.48;3.45;;;;;;;5.49;68.73;100588.38;4968498;28;20546;-78
2021/01/05 06:13:11;;;;;;;8.27;3.35;;;;;;;5.83;67.58;100590.16;4959559;28;20126;-79
2021/01/05 06:15:38;;;;;;;6.55;3.58;;;;;;;5.59;67.65;100591.25;4941491;28;20134;-76
2021/01/05 06:18:08;;;;;;;13.60;4.15;;;;;;;5.74;67.79;100585.59;4963028;28;20054;-77
2021/01/05 06:20:35;;;;;;;7.90;4.13;;;;;;;6.07;66.65;100586.50;4975689;28;20121;-78
2021/01/05 06:23:02;;;;;;;10.15;3.97;;;;;;;6.43;65.65;100580.41;4966384;28;20046;-76
2021/01/05 06:25:29;;;;;;;8.75;4.40;;;;;;;6.14;66.30;100580.59;4978155;28;20055;-76
2021/01/05 06:27:55;;;;;;;12.90;4.65;;;;;;;6.27;65.93;100588.69;4952521;28;20068;-77
2021/01/05 06:30:23;;;;;;;8.55;3.60;;;;;;;5.57;67.50;100590.34;5014379;28;20118;-78
2021/01/05 06:32:50;;;;;;;6.50;3.63;;;;;;;5.23;69.15;100593.72;5031208;28;20051;-77
2021/01/05 06:35:22;;;;;;;8.77;3.83;;;;;;;5.96;67.43;100594.84;5016569;28;20053;-77
2021/01/05 06:37:50;;;;;;;7.78;3.42;;;;;;;5.41;68.38;100587.31;5016962;28;20041;-78
2021/01/05 06:40:20;;;;;;;5.53;3.40;;;;;;;5.91;67.01;100586.94;5016197;28;20076;-77
2021/01/05 06:42:47;;;;;;;6.80;3.35;;;;;;;5.91;67.16;100586.94;5002536;28;20045;-77
2021/01/05 06:45:20;;;;;;;11.23;3.40;;;;;;;5.56;68.75;100591.16;5008564;28;20415;-77
2021/01/05 06:47:51;;;;;;;9.07;3.50;;;;;;;6.14;66.81;100583.19;5003620;28;20132;-77
2021/01/05 06:50:19;;;;;;;4.32;2.67;;;;;;;5.80;67.68;100585.78;5017057;28;20114;-78
2021/01/05 06:52:46;;;;;;;10.55;2.33;;;;;;;6.18;65.96;100591.97;5013079;28;20060;-76
2021/01/05 06:55:16;;;;;;;6.97;2.55;;;;;;;6.16;66.42;100588.44;5009341;28;20485;-77
2021/01/05 06:57:43;;;;;;;6.97;1.98;;;;;;;6.33;65.79;100584.50;5020695;28;20037;-77
2021/01/05 07:00:24;;;;;;;7.07;2.25;;;;;;;6.53;65.04;100590.16;5009718;28;20450;-77
2021/01/05 07:02:51;;;;;;;5.07;1.52;;;;;;;6.47;64.93;100587.47;5036747;28;20404;-78
2021/01/05 07:05:19;;;;;;;5.72;1.70;;;;;;;6.07;65.62;100599.47;5009076;28;20056;-77
2021/01/05 07:07:52;;;;;;;8.20;1.58;;;;;;;6.00;66.27;100597.53;5016540;28;20065;-78
2021/01/05 07:10:21;;;;;;;11.50;2.05;;;;;;;6.44;64.70;100596.03;5015756;28;20484;-78
2021/01/05 07:12:50;;;;;;;2.97;1.30;;;;;;;6.07;64.87;100599.47;5017849;28;20041;-79
2021/01/05 07:15:18;;;;;;;3.28;1.48;;;;;;;5.81;66.38;100604.78;5032647;28;20064;-79
2021/01/05 07:17:46;;;;;;;9.30;1.85;;;;;;;5.92;65.92;100605.97;5003470;28;20040;-79
2021/01/05 07:20:15;;;;;;;8.32;2.60;;;;;;;6.14;65.10;100606.53;5018378;28;20061;-77
2021/01/05 07:22:42;;;;;;;9.43;1.75;;;;;;;6.05;65.17;100595.94;4999044;28;20147;-77
2021/01/05 07:25:12;;;;;;;7.35;1.90;;;;;;;6.64;63.66;100599.09;5009922;28;20041;-76
2021/01/05 07:27:39;;;;;;;4.45;1.20;;;;;;;6.46;64.14;100598.69;5014875;28;20042;-77
2021/01/05 07:30:07;;;;;;;8.00;1.95;;;;;;;5.96;64.46;100594.84;5015728;28;20041;-77
2021/01/05 07:32:36;;;;;;;9.55;1.92;;;;;;;5.99;65.54;100593.22;5022755;28;20064;-77
2021/01/05 07:35:06;;;;;;;7.35;1.67;;;;;;;6.07;64.73;100591.69;5013507;28;20399;-78
2021/01/05 07:37:38;;;;;;;9.00;1.88;;;;;;;6.14;65.02;100598.75;4970256;28;20421;-77
2021/01/05 07:40:06;;;;;;;;;;;;;;;6.44;63.92;100583.06;4996539;28;20460;-77
2021/01/05 07:42:33;;;;;;;8.43;1.67;;;;;;;6.49;63.50;100593.53;5032062;28;19920;-77
2021/01/05 07:45:07;;;;;;;5.80;1.92;;;;;;;6.45;63.94;100596.91;5019702;28;20058;-78
2021/01/05 07:47:37;;;;;;;10.75;2.00;;;;;;;6.67;62.84;100600.88;5016307;28;20049;-78
2021/01/05 07:50:07;;;;;;;5.85;1.38;;;;;;;6.29;63.70;100600.84;5022539;28;20041;-77
2021/01/05 07:52:38;;;;;;;3.67;1.30;;;;;;;5.95;64.90;100606.91;5014339;28;20082;-77
2021/01/05 07:55:19;;;;;;;10.07;1.83;;;;;;;5.68;64.93;100601.88;5016079;28;20037;-78
2021/01/05 07:57:47;;;;;;;6.18;1.48;;;;;;;5.65;64.71;100603.50;5005512;28;20099;-77
2021/01/05 08:00:18;;;;;;;7.85;2.03;;;;;;;6.31;63.70;100614.75;4976659;28;20064;-79
2021/01/05 08:02:50;;;;;;;6.72;1.98;;;;;;;6.40;62.52;100609.78;5017474;28;20405;-77
2021/01/05 08:05:19;;;;;;;10.77;2.13;;;;;;;6.33;62.91;100618.25;4999651;28;20046;-76
2021/01/05 08:07:47;;;;;;;7.40;1.98;;;;;;;6.44;62.11;100631.50;4989886;28;20392;-77
2021/01/05 08:10:27;;;;;;;8.20;1.75;;;;;;;6.73;61.21;100611.41;5001611;28;20062;-78
2021/01/05 08:12:54;;;;;;;7.97;1.85;;;;;;;6.30;62.24;100627.69;5006258;28;20041;-78
2021/01/05 08:15:24;;;;;;;6.63;1.85;;;;;;;5.86;62.51;100626.50;4999577;28;20084;-78
2021/01/05 08:17:52;;;;;;;7.78;2.10;;;;;;;5.96;62.29;100624.25;5020822;28;20509;-77
2021/01/05 08:20:22;;;;;;;17.15;1.98;;;;;;;5.66;63.26;100634.63;5015132;28;20077;-79
2021/01/05 08:23:01;;;;;;;8.80;1.83;;;;;;;6.49;61.20;100643.75;5003556;28;20057;-77
2021/01/05 08:25:34;;;;;;;6.70;2.45;;;;;;;6.35;61.88;100633.88;5013485;28;20042;-78
2021/01/05 08:28:02;;;;;;;9.85;2.05;;;;;;;6.49;60.89;100635.97;4994578;28;20045;-77
2021/01/05 08:30:33;;;;;;;4.90;2.00;;;;;;;6.85;60.25;100640.25;4990927;28;20076;-77
2021/01/05 08:33:07;;;;;;;7.57;1.92;;;;;;;6.37;61.06;100646.06;5017222;28;20094;-77
2021/01/05 08:35:37;;;;;;;11.27;2.20;;;;;;;6.60;60.81;100638.81;5012602;28;20079;-77
2021/01/05 08:38:14;;;;;;;7.40;2.22;;;;;;;6.50;61.12;100644.63;5013774;28;20534;-78
2021/01/05 08:40:42;;;;;;;11.05;2.35;;;;;;;6.57;61.27;100638.72;5002965;28;20805;-76
2021/01/05 08:43:12;;;;;;;9.88;2.08;;;;;;;6.33;61.71;100643.34;5002899;28;20068;-78
2021/01/05 08:45:41;;;;;;;6.15;1.60;;;;;;;6.34;61.75;100648.56;5018720;28;20357;-78
2021/01/05 08:48:10;;;;;;;3.88;1.20;;;;;;;6.32;61.99;100651.97;5015559;28;20492;-78
2021/01/05 08:50:40;;;;;;;7.93;1.70;;;;;;;6.77;60.42;100647.84;4998970;28;20041;-78
2021/01/05 08:53:13;;;;;;;7.43;1.60;;;;;;;6.61;61.61;100655.28;4971058;28;20532;-79
2021/01/05 08:55:44;;;;;;;15.23;1.85;;;;;;;6.58;61.49;100650.88;4978191;28;20054;-77
2021/01/05 08:58:10;;;;;;;9.65;1.90;;;;;;;6.98;60.77;100660.47;4979094;28;20038;-79
2021/01/05 09:00:39;;;;;;;6.82;1.30;;;;;;;6.72;61.16;100666.78;4966481;28;20256;-77
2021/01/05 09:03:08;;;;;;;7.40;1.92;;;;;;;6.33;62.11;100670.16;4980652;28;20042;-77
2021/01/05 09:05:46;;;;;;;5.78;1.55;;;;;;;6.25;62.17;100683.78;4975402;28;20412;-78
2021/01/05 09:08:15;;;;;;;5.97;1.40;;;;;;;6.40;62.75;100674.66;4949542;28;20619;-80
2021/01/05 09:10:42;;;;;;;10.27;2.22;;;;;;;6.31;62.92;100682.22;4981364;28;20046;-78
2021/01/05 09:13:12;;;;;;;10.73;1.70;;;;;;;6.63;62.28;100674.34;4981361;28;20047;-79
2021/01/05 09:15:41;;;;;;;9.02;2.10;;;;;;;6.07;63.32;100687.66;4979170;28;20478;-80
2021/01/05 09:18:09;;;;;;;6.10;1.65;;;;;;;6.75;61.93;100680.72;4993036;28;20132;-78
2021/01/05 09:20:35;;;;;;;7.82;1.70;;;;;;;6.73;61.65;100673.72;4974215;28;20053;-78
2021/01/05 09:23:05;;;;;;;9.70;2.17;;;;;;;5.94;64.12;100679.53;4975519;28;20524;-76
2021/01/05 09:25:33;;;;;;;12.77;2.42;;;;;;;6.27;63.83;100672.63;4978213;28;20053;-77
2021/01/05 09:28:00;;;;;;;7.97;1.95;;;;;;;6.45;62.21;100670.47;4969040;28;20050;-78
2021/01/05 09:30:28;;;;;;;11.00;1.80;;;;;;;6.88;61.58;100668.88;4983119;28;20467;-75
2021/01/05 09:32:55;;;;;;;10.23;2.20;;;;;;;7.14;60.58;100657.38;4989368;28;20076;-77
2021/01/05 09:35:23;;;;;;;5.68;2.05;;;;;;;6.68;61.92;100668.41;4976223;28;20038;-76
2021/01/05 09:37:50;;;;;;;6.72;2.00;;;;;;;6.51;63.30;100669.75;4971193;28;20046;-74
2021/01/05 09:40:18;;;;;;;7.00;1.50;;;;;;;6.53;62.60;100665.44;4997775;28;20069;-76
2021/01/05 09:42:46;;;;;;;6.28;1.98;;;;;;;7.01;61.59;100664.00;4991693;28;20100;-74
2021/01/05 09:45:14;;;;;;;11.73;1.90;;;;;;;7.32;60.26;100668.16;4988478;28;20046;-75
2021/01/05 09:47:42;;;;;;;8.25;1.88;;;;;;;7.37;60.10;100660.44;4981038;28;20500;-75
2021/01/05 09:50:10;;;;;;;5.93;1.40;;;;;;;7.10;60.52;100670.28;4984999;28;20132;-76
2021/01/05 09:52:37;;;;;;;11.82;1.85;;;;;;;7.47;59.65;100672.81;4996029;28;20224;-76
2021/01/05 09:55:08;;;;;;;5.15;1.55;;;;;;;7.58;59.30;100673.88;4998606;28;20445;-75
2021/01/05 09:57:36;;;;;;;5.07;1.77;;;;;;;7.22;59.17;100662.72;4951619;28;20053;-75
2021/01/05 10:00:07;;;;;;;6.95;1.85;;;;;;;7.19;59.67;100668.75;4970750;28;20413;-74
2021/01/05 10:02:34;;;;;;;11.55;2.50;;;;;;;7.16;60.24;100665.19;4980941;28;20064;-77
2021/01/05 10:05:04;;;;;;;9.50;2.53;;;;;;;6.58;61.37;100669.03;4972084;28;20058;-76
2021/01/05 10:07:32;;;;;;;8.52;2.50;;;;;;;6.98;60.60;100674.34;4979492;28;20113;-76
2021/01/05 10:09:59;;;;;;;12.02;2.47;;;;;;;7.21;60.22;100680.03;4997543;28;20567;-77
2021/01/05 10:12:25;;;;;;;7.85;2.15;;;;;;;7.19;60.15;100688.66;4998264;28;20073;-76
2021/01/05 10:14:52;;;;;;;10.90;2.10;;;;;;;7.48;59.42;100695.34;4973522;28;20041;-78
2021/01/05 10:17:19;;;;;;;12.68;2.20;;;;;;;7.44;59.84;100683.13;4983949;28;20085;-76
2021/01/05 10:19:46;;;;;;;8.15;1.58;;;;;;;7.43;59.98;100689.19;4983165;28;20492;-75
2021/01/05 10:22:14;;;;;;;12.32;2.33;;;;;;;7.60;59.61;100693.00;4969110;28;20042;-77
2021/01/05 10:24:40;;;;;;;8.07;2.10;;;;;;;7.47;59.84;100691.00;4965838;28;20057;-76
2021/01/05 10:27:13;;;;;;;11.35;2.25;;;;;;;7.11;60.62;100695.38;4967334;28;20347;-76
2021/01/05 10:29:41;;;;;;;24.20;2.92;;;;;;;7.16;61.38;100694.66;5017751;28;20483;-76
2021/01/05 10:32:08;;;;;;;13.05;3.08;;;;;;;7.68;59.57;100685.34;5002510;28;20081;-73
2021/01/05 10:34:34;;;;;;;12.02;2.50;;;;;;;7.62;60.14;100688.72;5007201;28;20136;-76
2021/01/05 10:37:01;;;;;;;9.40;1.85;;;;;;;7.16;60.40;100696.38;5014726;28;20041;-75
2021/01/05 10:39:29;;;;;;;9.40;1.88;;;;;;;7.50;60.33;100682.38;5010266;28;20056;-72
2021/01/05 10:41:59;;;;;;;13.30;2.08;;;;;;;7.63;59.90;100685.25;5000870;28;20046;-76
2021/01/05 10:44:25;;;;;;;7.68;1.85;;;;;;;7.93;58.86;100700.59;5011976;28;20121;-74
2021/01/05 10:47:00;;;;;;;8.52;2.10;;;;;;;7.27;60.43;100695.78;5015458;28;20057;-76
2021/01/05 10:49:27;;;;;;;4.00;1.50;;;;;;;7.59;60.01;100691.22;5007987;28;20429;-74
2021/01/05 10:51:56;;;;;;;8.02;1.92;;;;;;;7.95;59.19;100688.50;5012323;28;20477;-77
2021/01/05 10:54:26;;;;;;;6.10;1.95;;;;;;;7.75;58.70;100692.44;4993788;28;20046;-76
2021/01/05 10:57:04;;;;;;;7.03;1.90;;;;;;;8.19;58.34;100685.47;5013111;28;20037;-78
2021/01/05 10:59:31;;;;;;;5.13;1.55;;;;;;;8.07;58.28;100685.22;5020383;28;20477;-77
2021/01/05 11:02:02;;;;;;;10.45;2.60;;;;;;;7.82;59.33;100682.16;5015817;28;20054;-75
2021/01/05 11:04:30;;;;;;;4.82;1.85;;;;;;;7.75;59.80;100679.44;5013554;28;20068;-77
2021/01/05 11:06:59;;;;;;;12.55;1.95;;;;;;;7.87;58.97;100666.63;5018464;28;20043;-77
2021/01/05 11:09:28;;;;;;;12.57;2.30;;;;;;;8.07;58.91;100670.50;4992930;28;20052;-75
2021/01/05 11:12:00;;;;;;;13.05;2.20;;;;;;;7.98;58.87;100659.03;5022238;28;20053;-78
2021/01/05 11:14:26;;;;;;;12.80;2.28;;;;;;;7.67;59.60;100671.47;5005337;28;20346;-75
2021/01/05 11:16:54;;;;;;;8.02;2.30;;;;;;;7.74;59.75;100670.75;5026336;28;20110;-77
2021/01/05 11:19:21;;;;;;;11.10;2.35;;;;;;;8.14;58.14;100667.16;5003978;28;20052;-75
2021/01/05 11:21:55;;;;;;;9.95;1.98;;;;;;;7.83;59.30;100659.63;5015753;28;20071;-75
2021/01/05 11:24:24;;;;;;;4.32;1.83;;;;;;;8.55;57.04;100664.41;5020117;28;20121;-77
2021/01/05 11:26:52;;;;;;;6.32;1.90;;;;;;;8.03;59.30;100657.41;4994709;28;20049;-75
2021/01/05 11:29:20;;;;;;;40.95;4.05;;;;;;;9.14;56.83;100662.69;5005634;28;20107;-76
2021/01/05 11:31:58;;;;;;;8.05;2.60;;;;;;;10.25;53.51;100645.75;4999771;28;20094;-75
2021/01/05 11:34:26;;;;;;;9.73;1.98;;;;;;;12.55;48.21;100640.69;4997450;28;20092;-77
2021/01/05 11:36:52;;;;;;;4.15;1.70;;;;;;;13.95;43.87;100639.41;5011316;28;20072;-75
2021/01/05 11:39:20;;;;;;;9.80;1.80;;;;;;;12.08;45.40;100636.31;5018603;28;20057;-75
2021/01/05 11:41:47;;;;;;;6.88;1.70;;;;;;;10.40;50.16;100631.09;4990988;28;20073;-75
2021/01/05 11:44:14;;;;;;;6.72;1.77;;;;;;;10.64;50.76;100640.00;5002638;28;20254;-75
2021/01/05 11:46:42;;;;;;;4.82;1.58;;;;;;;9.79;52.98;100642.63;5006653;28;20058;-75
2021/01/05 11:49:09;;;;;;;10.32;1.98;;;;;;;9.30;54.30;100650.75;4999911;28;20072;-75
2021/01/05 11:51:38;;;;;;;13.02;2.10;;;;;;;9.13;55.45;100633.16;5019014;28;20041;-77
2021/01/05 11:54:06;;;;;;;4.95;1.80;;;;;;;9.35;54.68;100631.69;5020726;28;20041;-77